Time;durP1;ratioP1;P1;durP2;ratioP2;P2;SDS_P1;SDS_P2;PMS_P1;PMS_P2;Temp;Humidity;BMP_temperature;BMP_pressure;BME280_temperature;BME280_humidity;BME280_pressure;Samples;Min_cycle;Max_cycle;Signal;HPM_P1;HPM_P2
2021/05/31 00:10:52;;;;;;;31.03;11.63;;;;;;;9.24;100.00;101228.41;713728;1179;114448;-82
2021/05/31 00:26:16;;;;;;;13.38;6.78;;;;;;;9.03;100.00;101224.59;713275;1202;114231;-83
2021/05/31 00:41:36;;;;;;;9.55;4.08;;;;;;;8.92;100.00;101217.45;714132;1206;115062;-82
2021/05/31 00:56:58;;;;;;;6.65;4.13;;;;;;;8.85;100.00;101205.73;714282;1202;115027;-83
2021/05/31 01:12:44;;;;;;;11.00;5.10;;;;;;;8.75;100.00;101201.11;714085;1177;114227;-79
2021/05/31 01:28:21;;;;;;;8.00;4.90;;;;;;;8.52;100.00;101205.21;714278;1206;115375;-83
2021/05/31 01:43:44;;;;;;;39.70;13.20;;;;;;;8.35;100.00;101210.66;714420;1178;114644;-83
2021/05/31 01:59:06;;;;;;;14.63;6.30;;;;;;;8.17;100.00;101195.22;714137;1203;114936;-84
2021/05/31 02:15:00;;;;;;;6.03;4.73;;;;;;;8.03;100.00;101190.86;714392;1206;115048;-84
2021/05/31 02:30:22;;;;;;;13.75;7.05;;;;;;;7.90;100.00;101192.56;714385;1206;114847;-85
2021/05/31 02:45:43;;;;;;;11.93;6.35;;;;;;;7.82;100.00;101191.25;714205;1205;115021;-85
2021/05/31 03:01:03;;;;;;;15.03;6.80;;;;;;;7.83;100.00;101197.33;714309;1179;113997;-85
2021/05/31 03:16:24;;;;;;;20.08;9.65;;;;;;;7.82;100.00;101200.88;714437;1202;115542;-82
2021/05/31 03:31:44;;;;;;;13.10;6.48;;;;;;;8.13;100.00;101194.57;714246;1202;115274;-85
2021/05/31 03:47:05;;;;;;;15.43;5.97;;;;;;;8.45;100.00;101190.84;713222;1178;113830;-85
2021/05/31 04:02:27;;;;;;;10.00;5.50;;;;;;;8.87;100.00;101203.84;714283;1202;115407;-85
2021/05/31 04:17:48;;;;;;;14.23;5.80;;;;;;;9.31;100.00;101213.11;714413;1205;114670;-85
2021/05/31 04:33:09;;;;;;;16.57;6.67;;;;;;;9.57;100.00;101220.98;715869;1202;115200;-84
2021/05/31 04:48:31;;;;;;;11.95;5.75;;;;;;;10.14;100.00;101207.33;714323;1205;115625;-84
2021/05/31 05:03:51;;;;;;;12.45;6.73;;;;;;;10.78;100.00;101203.63;716814;1169;115191;-83
2021/05/31 05:19:12;;;;;;;90.77;23.83;;;;;;;11.36;100.00;101197.52;712466;1205;114295;-83
2021/05/31 05:34:32;;;;;;;13.98;6.25;;;;;;;12.25;100.00;101192.34;712231;1202;116067;-80
2021/05/31 05:49:52;;;;;;;12.20;6.03;;;;;;;12.95;100.00;101171.69;712309;1203;115883;-80
2021/05/31 06:05:14;;;;;;;26.63;12.00;;;;;;;13.59;100.00;101174.24;712327;1202;114927;-80
2021/05/31 06:20:35;;;;;;;18.60;7.70;;;;;;;14.34;100.00;101179.95;713023;1202;116428;-85
2021/05/31 06:35:59;;;;;;;7.55;4.03;;;;;;;14.88;100.00;101174.27;712894;1202;115502;-82
2021/05/31 06:51:20;;;;;;;8.05;3.00;;;;;;;15.55;96.56;101174.20;713071;1202;115642;-81
2021/05/31 07:06:40;;;;;;;8.95;3.45;;;;;;;16.16;93.38;101159.52;712633;1206;114723;-80
2021/05/31 07:22:03;;;;;;;10.65;2.53;;;;;;;16.75;88.13;101154.56;712786;1202;114995;-76
2021/05/31 07:37:23;;;;;;;8.23;4.23;;;;;;;18.03;83.21;101163.67;712814;1178;114575;-75
2021/05/31 07:52:44;;;;;;;19.18;3.33;;;;;;;18.85;78.01;101163.68;712738;1202;114539;-75
2021/05/31 08:08:05;;;;;;;6.73;2.20;;;;;;;18.82;71.46;101155.20;713340;1202;115393;-76
2021/05/31 08:23:25;;;;;;;4.30;2.60;;;;;;;19.38;73.40;101145.45;712748;1205;115255;-77
2021/05/31 08:38:46;;;;;;;4.70;2.33;;;;;;;19.06;69.82;101138.43;712776;1203;113993;-77
2021/05/31 08:54:07;;;;;;;9.17;2.77;;;;;;;19.13;68.40;101128.75;712780;1202;114677;-77
2021/05/31 09:09:41;;;;;;;6.05;2.28;;;;;;;19.45;61.89;101114.50;713174;1202;115316;-76
2021/05/31 09:25:04;;;;;;;7.28;3.60;;;;;;;20.44;63.33;101108.54;714706;1184;114916;-75
2021/05/31 09:40:26;;;;;;;4.43;1.93;;;;;;;22.43;58.29;101106.86;713093;1201;114701;-75
2021/05/31 09:55:47;;;;;;;8.10;2.30;;;;;;;21.93;57.40;101096.96;715370;1202;114550;-75
2021/05/31 10:11:09;;;;;;;3.63;1.60;;;;;;;23.14;56.53;101078.31;713165;1205;114979;-75
2021/05/31 10:26:33;;;;;;;2.73;1.77;;;;;;;23.71;55.44;101085.06;712623;1202;113996;-75
2021/05/31 10:42:07;;;;;;;5.15;1.75;;;;;;;22.50;56.37;101066.81;712570;1202;114879;-78
2021/05/31 10:57:34;;;;;;;9.40;2.88;;;;;;;21.44;55.95;101055.77;712661;1203;113863;-77
2021/05/31 11:12:55;;;;;;;4.00;1.60;;;;;;;22.56;55.23;101045.46;712864;1203;113987;-79
2021/05/31 11:28:21;;;;;;;3.65;1.95;;;;;;;21.38;53.72;101037.83;713036;1202;114510;-79
2021/05/31 11:43:49;;;;;;;4.50;2.10;;;;;;;23.26;55.22;101018.64;713966;1202;114135;-78
2021/05/31 11:59:09;;;;;;;7.80;2.40;;;;;;;22.42;52.22;101017.84;713498;1205;115292;-73
2021/05/31 12:14:29;;;;;;;5.07;1.70;;;;;;;23.60;52.14;100992.77;712842;1205;114332;-75
2021/05/31 12:29:52;;;;;;;4.20;1.63;;;;;;;24.29;50.70;100989.07;717563;1206;114420;-72
2021/05/31 12:45:16;;;;;;;7.25;2.43;;;;;;;23.00;52.01;100971.19;712845;1202;113652;-73
2021/05/31 13:00:36;;;;;;;7.07;3.40;;;;;;;22.34;49.80;100967.16;712819;1203;114048;-74
2021/05/31 13:15:58;;;;;;;10.15;3.03;;;;;;;21.73;51.96;100963.23;712870;1202;114853;-72
2021/05/31 13:31:20;;;;;;;10.70;4.50;;;;;;;22.97;51.79;100939.50;712738;1203;115383;-73
2021/05/31 13:46:42;;;;;;;3.10;1.80;;;;;;;24.20;48.68;100924.95;713126;1206;114112;-75
2021/05/31 14:02:02;;;;;;;13.97;8.87;;;;;;;22.67;51.68;100923.76;715351;1202;114036;-74
2021/05/31 14:17:23;;;;;;;3.28;1.73;;;;;;;23.42;52.82;100910.40;712594;1203;114138;-71
2021/05/31 14:32:44;;;;;;;4.33;1.83;;;;;;;21.90;51.70;100914.91;712659;1202;115194;-72
2021/05/31 14:48:06;;;;;;;5.00;2.40;;;;;;;22.63;54.05;100905.66;717417;1202;115037;-73
2021/05/31 15:03:26;;;;;;;5.73;2.10;;;;;;;23.41;53.07;100891.84;714231;1202;115385;-72
2021/05/31 15:18:47;;;;;;;9.33;2.75;;;;;;;23.13;53.11;100884.79;712683;1202;114117;-75
2021/05/31 15:34:08;;;;;;;6.28;2.08;;;;;;;23.35;51.30;100872.08;712674;1202;115460;-73
2021/05/31 15:49:29;;;;;;;4.95;2.85;;;;;;;22.84;52.38;100860.05;717164;1202;114478;-72
2021/05/31 16:04:52;;;;;;;4.50;2.30;;;;;;;22.19;51.58;100856.92;714984;1202;115556;-72
2021/05/31 16:20:13;;;;;;;23.23;15.85;;;;;;;21.58;52.51;100848.55;714551;1203;115123;-73
2021/05/31 16:35:34;;;;;;;240.75;127.65;;;;;;;21.33;53.92;100864.13;715717;1202;114865;-73
2021/05/31 16:51:07;;;;;;;9.70;6.80;;;;;;;21.32;55.34;100853.66;714576;1203;116100;-73
2021/05/31 17:06:33;;;;;;;5.93;3.17;;;;;;;20.73;54.72;100850.21;715626;1202;115603;-72
2021/05/31 17:21:54;;;;;;;12.45;8.85;;;;;;;20.17;55.86;100850.76;714672;1203;114331;-71
2021/05/31 17:37:14;;;;;;;5.70;3.30;;;;;;;19.51;56.85;100840.77;720799;1202;115102;-69
2021/05/31 17:52:36;;;;;;;6.73;4.38;;;;;;;19.10;58.00;100836.63;715554;1202;115336;-72
2021/05/31 18:07:56;;;;;;;15.50;6.50;;;;;;;18.54;59.34;100842.08;714647;1203;113956;-71
2021/05/31 18:23:16;;;;;;;10.98;6.43;;;;;;;17.87;60.75;100846.80;715606;1202;114850;-71
2021/05/31 18:38:38;;;;;;;15.15;8.80;;;;;;;17.33;62.83;100854.46;714860;1178;114798;-71
2021/05/31 18:53:59;;;;;;;31.90;13.77;;;;;;;16.83;64.15;100859.69;717019;1205;115463;-73
2021/05/31 19:09:20;;;;;;;38.50;16.90;;;;;;;16.17;66.70;100858.64;715577;1205;114511;-72
2021/05/31 19:24:41;;;;;;;32.33;16.33;;;;;;;15.35;68.90;100853.58;714288;1202;115631;-74
2021/05/31 19:40:10;;;;;;;65.23;31.95;;;;;;;14.99;71.25;100859.70;717956;1202;114851;-72
2021/05/31 20:11:12;;;;;;;35.70;16.37;;;;;;;14.40;75.67;100860.03;719396;1177;114724;-74
2021/05/31 20:26:33;;;;;;;38.60;16.70;;;;;;;14.19;77.47;100846.25;713848;1188;114754;-71
2021/05/31 20:41:54;;;;;;;35.30;16.95;;;;;;;13.98;78.04;100849.92;713139;1202;115742;-71
2021/05/31 20:57:15;;;;;;;87.93;35.98;;;;;;;13.73;80.65;100841.66;712537;1178;114331;-72
2021/05/31 21:12:38;;;;;;;84.95;38.90;;;;;;;13.34;84.14;100839.03;712430;1202;114762;-72
2021/05/31 21:27:58;;;;;;;36.75;20.08;;;;;;;13.24;84.51;100840.86;712569;1202;115852;-72
2021/05/31 21:43:18;;;;;;;66.13;29.67;;;;;;;12.89;87.18;100844.84;712679;1202;115195;-72
2021/05/31 21:58:39;;;;;;;32.47;15.73;;;;;;;12.52;88.82;100832.31;713216;1202;115701;-72
2021/05/31 22:14:23;;;;;;;13.35;7.33;;;;;;;12.06;88.64;100809.05;712907;1202;115437;-71
2021/05/31 22:45:51;;;;;;;34.40;18.75;;;;;;;11.74;92.18;100809.13;712655;1202;115547;-71
2021/05/31 23:16:43;;;;;;;31.80;16.80;;;;;;;11.47;96.38;100790.30;712468;1202;115576;-72
2021/05/31 23:32:04;;;;;;;33.75;15.70;;;;;;;11.62;96.88;100784.72;712414;1202;115713;-71
2021/05/31 23:47:28;;;;;;;27.43;14.90;;;;;;;11.63;97.36;100778.50;712510;1202;114900;-71
